Tiempo atmosférico en la estación meteorológica de Lugo Aeropuerto, Lugo (445 m.)



Fecha
DESCASC
Temp. máxima en grados centígrados (hora)
DESCASC
Temp. mínima en grados centígrados (hora)
DESCASC
Temp. media en grados centígrados
DESCASC
Racha de viento máxima en m/sg (hora)
DESCASC
Velocidad máxima media en intervalos de 10 minutos(hora)
DESCASC
Precipitaciones diarias en mm
DESCASC
Precipitaciones de 00:00 a 06:00 en mm
DESCASC
Precipitaciones de 06:00 a 12:00 en mm
DESCASC
Precipitaciones de 12:00 a 18:00 en mm
DESCASC
Precipitaciones de 18:00 a 24:00 en mm
DESCASC
20-01-2019 9.5 (15:10) 2.5 (07:00) 6 7.22 (15:40) 1.94 (13:50) 3.2 0.4 0.2 1.8 0.8
19-01-2019 8.5 (17:40) 5.4 (02:00) 7 11.67 (11:00) 5.56 (11:00) 15.8 0.2 5.8 5 4.8
18-01-2019 5.9 (15:00) 0.1 (00:00) 3 7.22 (18:00) 3.33 (18:00) 2.4 0 2 0 0.4
17-01-2019 9.5 (16:10) -0.3 (00:00) 4.6 3.33 (16:10) 1.67 (07:50) 0.4 0 0 0.4 0
16-01-2019 9.5 (17:30) -0.9 (-00:0) 4.3 6.11 (12:30) 3.33 (12:50) 2.5 0 0.2 0 2.3
15-01-2019 11 (17:20) -0.7 (-00:0) 5.2 3.89 (08:30) 1.94 (08:40) 0 0 0 0 0
14-01-2019 12.8 (14:20) 2.1 (00:00) 7.5 6.11 (11:50) 3.61 (11:50) 0 0 0 0 0
13-01-2019 11.4 (16:10) -1.4 (-00:0) 5 8.06 (13:10) 3.33 (12:40) 0 0 0 0 0
12-01-2019 10 (14:00) -2.7 (-00:0) 3.6 8.33 (13:50) 4.17 (14:40) 0 0 0 0 0
11-01-2019 9.8 (14:20) -1.1 (-00:0) 4.4 11.67 (16:10) 6.39 (16:10) 0 0 0 0 0
10-01-2019 10.2 (14:20) 0.8 (00:00) 5.5 10.83 (18:20) 6.11 (19:40) 0 0 0 0 0
09-01-2019 10.7 (15:00) 1.1 (00:00) 5.9 8.89 (16:50) 4.72 (02:50) 0 0 0 0 0
08-01-2019 -- (--) -- (--) -- -- (--) -- (--) -- -- -- 0 0
07-01-2019 9.8 (15:30) -3.7 (-00:0) 3.1 6.67 (15:00) 3.33 (15:40) 0 0 0 0 0
06-01-2019 12.7 (16:00) -7.2 (-00:0) 2.8 5 (18:20) 2.78 (18:20) 0 0 0 0 0
05-01-2019 7.9 (16:50) -7 (-00:0) 0.5 2.78 (20:40) 1.67 (18:30) 0 0 0 0 0
04-01-2019 7.7 (16:20) -6.2 (-00:0) 0.8 2.22 (20:00) 1.11 (14:30) 0 0 0 0 0
03-01-2019 11.4 (15:10) -2.7 (-00:0) 4.3 3.61 (14:00) 2.22 (16:30) 0 0 0 0 0
02-01-2019 10.4 (15:30) 1 (00:00) 5.7 7.22 (14:40) 3.61 (15:00) 0 0 0 0 0
01-01-2019 12.1 (16:40) -3.7 (-00:0) 4.2 6.39 (23:20) 2.78 (23:30) 0 0 0 0 0
31-12-2018 9.6 (17:30) -3.8 (-00:0) 2.9 2.22 (21:10) 1.39 (19:30) 0.2 0 0.2 0 0
30-12-2018 4.9 (16:30) -0.8 (-00:0) 2.1 2.78 (10:30) 1.67 (07:40) 0.2 0 0 0 0.2
29-12-2018 11.6 (14:10) 1.4 (00:00) 6.5 7.5 (15:10) 4.44 (13:00) 0 0 0 0 0
28-12-2018 14.5 (15:40) 4.2 (00:00) 9.3 6.11 (15:20) 3.06 (14:50) 0 0 0 0 0
27-12-2018 10.4 (15:50) 0.6 (00:00) 5.5 4.72 (03:30) 1.67 (03:40) 0.2 0 0.2 0 0
26-12-2018 15.1 (16:00) 0 (00:00) 7.6 2.22 (11:50) 1.67 (18:40) 0 0 0 0 0
25-12-2018 14 (15:50) 1 (00:00) 7.5 2.78 (21:20) 1.67 (21:10) 0 0 0 0 0
24-12-2018 11.8 (16:00) -0.2 (09:10) 5.8 2.22 (13:40) 1.39 (01:50) 0 0 0 0 0
23-12-2018 15.4 (14:00) 4 (00:00) 9.7 6.11 (02:30) 2.78 (14:10) 0 0 0 0 0

Gráficas

Temp. máximas Temp. mínimas Temp. medias Precipitaciones Rachas de viento máximas Velocidades máximas media en intervalos de 10 minutos

Datos horarios

Fecha y hora oficial Temperatura (ºC) Velocidad del viento (km/h) Dirección del viento Racha (km/h) Dirección de racha Precipitación (mm) Presión (hPa) Tendencia (hPa) Humedad (%)
2019-01-21 23:00:00 3.8 0 Calma 3 Sudeste 0 971.7 -0.7 93
2019-01-21 22:00:00 5.1 2 Sudeste 6 Sur 0 971.3 -0.9 89
2019-01-21 21:00:00 6.6 3 Sur 6 Este 0 972 0.3 87
2019-01-21 20:00:00 6.9 0 Calma 3 Norte 0 972.4 0.8 90
2019-01-21 19:00:00 7.4 0 Calma 5 Norte 0 972.2 0.4 86
2019-01-21 18:00:00 8.5 0 Calma 6 Noroeste 0 971.7 -0.7 80
2019-01-21 17:00:00 9.6 3 Norte 11 Noroeste 0 971.6 -1.4 73
2019-01-21 16:00:00 10.1 3 Norte 7 Nordeste 0 971.8 -1.4 73
2019-01-21 15:00:00 8.6 4 Noroeste 9 Noroeste 0 972.4 -1.1 78
2019-01-21 14:00:00 8.1 5 Norte 12 Norte 0 973 -0.1 88
2019-01-21 13:00:00 7.1 3 Norte 9 Norte 0.6 973.2 0.5 93
2019-01-21 12:00:00 6.4 3 Sudoeste 6 Noroeste 0 973.5 1 94
2019-01-21 11:00:00 5.9 3 Noroeste 6 Noroeste 0 973.1 0.9 96
2019-01-21 10:00:00 4.6 2 Sudoeste 5 Sudeste 0.2 972.7 0.8 97
2019-01-21 09:00:00 4 2 Noroeste 6 Sudeste 0.6 972.5 1 98
2019-01-21 08:00:00 3.9 0 Calma 6 Oeste 0.6 972.2 0.7 99
2019-01-21 07:00:00 3.6 2 Este 4 Sudeste 0.4 971.9 0.3 98
2019-01-21 06:00:00 4 3 Sudoeste 5 Este 0.2 971.5 0 98
2019-01-21 05:00:00 3.7 3 Oeste 6 Oeste 0 971.5 -0.2 98
2019-01-21 04:00:00 4 0 Calma 3 Sur 0.4 971.6 0 96
2019-01-21 03:00:00 4 2 Sudoeste 6 Sudeste -- 971.5 0.2 97
2019-01-21 02:00:00 4.1 2 Sudoeste 4 Sudoeste 0 971.7 0.9 92
2019-01-21 01:00:00 5.2 2 Sudoeste 3 Oeste 0 971.6 1.2 94
2019-01-21 00:00:00 5.3 2 Oeste 6 Este 0.2 971.3 1 97
2019-01-20 23:00:00 5.3 0 Calma 4 Oeste 0 970.8 1 94
2019-01-20 22:00:00 5.8 3 Sudeste 5 Este 0 970.4 1.2 96
2019-01-20 21:00:00 6.3 0 Calma 3 Sur 0.2 970.3 1.7 94
2019-01-20 20:00:00 6.6 0 Calma 4 Norte 0.4 969.8 1.7 94
2019-01-20 19:00:00 6.9 0 Calma 5 Noroeste 0 969.2 1.5 92
2019-01-20 18:00:00 7.3 0 Calma 7 Norte 0 968.6 1.2 91
2019-01-20 17:00:00 7.7 2 Nordeste 12 Nordeste 0.4 968.1 0.7 91
2019-01-20 16:00:00 8.1 4 Nordeste 26 Norte 0.2 967.7 0.3 88
2019-01-20 15:00:00 9.1 6 Norte 17 Norte 0.2 967.4 0.1 85
2019-01-20 14:00:00 8.4 4 Norte 20 Norte 0.6 967.4 0.9 92
2019-01-20 13:00:00 8 4 Norte 13 Noroeste 0.4 967.4 1.8 94
2019-01-20 12:00:00 7.4 4 Noroeste 10 Noroeste 0 967.3 2.2 96
2019-01-20 11:00:00 6.5 0 Calma 7 Oeste 0 966.5 1.8 95
2019-01-20 10:00:00 4.5 3 Sudoeste 5 Sudoeste 0 965.6 1.5 98
2019-01-20 09:00:00 3.7 2 Sur 7 Sudeste 0 965.1 1.4 98
2019-01-20 08:00:00 3.3 2 Sur 3 Sur 0.2 964.7 1.2 98
2019-01-20 07:00:00 2.6 2 Sudoeste 8 Sudeste 0 964.1 0.7 96
2019-01-20 06:00:00 2.9 2 Sudeste 5 Sur 0 963.7 1.1 95
2019-01-20 05:00:00 4 2 Nordeste 5 Norte 0 963.5 1.5 95
2019-01-20 04:00:00 4.7 0 Calma 4 Oeste 0 963.4 1.9 93
2019-01-20 03:00:00 5.7 2 Noroeste 6 Noroeste 0.2 962.6 2.2 95
2019-01-20 02:00:00 6 3 Oeste 7 Oeste 0 962 2.3 94
2019-01-20 01:00:00 6.3 4 Noroeste 9 Noroeste 0.2 961.5 3.2 97
2019-01-20 00:00:00 6.6 0 Calma 8 Nordeste 0 960.4 3.2 95
2019-01-19 23:00:00 6.4 3 Norte 24 Nordeste 0 959.7 4.3 95
2019-01-19 22:00:00 7.2 6 Nordeste 23 Norte 0 958.3 4.3 96
2019-01-19 21:00:00 7.9 6 Norte 26 Norte 0.4 957.2 3.8 96
2019-01-19 20:00:00 8.3 4 Noroeste 18 Noroeste 2.6 955.4 1.9 97
2019-01-19 19:00:00 8.4 3 Sudeste 19 Sur 1.8 954 0.3 96
2019-01-19 18:00:00 8.4 8 Sur 19 Sudoeste 0.4 953.4 -1.3 95
2019-01-19 17:00:00 8.4 10 Sudoeste 23 Sur 0.4 953.5 -2 95
2019-01-19 16:00:00 8.4 10 Sur 21 Sudoeste 1 953.7 -2.9 95
2019-01-19 15:00:00 8.1 13 Sur 31 Sur 1.4 954.7 -2.8 95
2019-01-19 14:00:00 7.7 14 Sudoeste 35 Sur 1.6 955.5 -2.4 94
2019-01-19 13:00:00 7.8 16 Sudoeste 37 Sur 0.2 956.6 -1.3 93
2019-01-19 12:00:00 6.8 15 Sur 35 Sudoeste 1.2 957.5 -1.1 95
2019-01-19 11:00:00 6.3 20 Sudoeste 42 Sur 1.6 957.9 -1.8 94
2019-01-19 10:00:00 6.3 14 Sudoeste 41 Sur 0.8 957.9 -2.9 93
2019-01-19 09:00:00 6.1 14 Sur 34 Sur 0.8 958.6 -3 94
2019-01-19 08:00:00 6.1 9 Sur 27 Sur 0.6 959.7 -2.6 94
2019-01-19 07:00:00 6.1 11 Sudoeste 26 Sur 0.8 960.8 -2.3 95
2019-01-19 06:00:00 6.2 10 Sur 24 Sudoeste 0.2 961.6 -1.8 94
2019-01-19 05:00:00 6.2 9 Sudoeste 21 Sudoeste 0 962.3 -1.9 93
2019-01-19 04:00:00 5.9 6 Sur 16 Sur 0 963.1 -1.9 94
2019-01-19 03:00:00 5.6 5 Sur 17 Sur 0 963.4 -1.6 95
2019-01-19 02:00:00 5.4 9 Sur 18 Sur 0 964.2 -0.9 95
2019-01-19 01:00:00 5.6 8 Sudoeste 20 Sur 0 965 0.1 95
2019-01-19 00:00:00 5.6 10 Sudoeste 21 Sur 0 965 0.2 95
2019-01-18 23:00:00 5.5 9 Sudoeste 18 Sur 0.2 965.1 0.4 95
2019-01-18 22:00:00 5.5 8 Sudoeste 18 Sudoeste 0.2 964.9 0.3 96
2019-01-18 21:00:00 5.6 9 Sudoeste 22 Sudoeste 0 964.8 0.2 94
2019-01-18 20:00:00 5.8 10 Sudoeste 20 Sudoeste 0 964.7 -0.2 90
2019-01-18 19:00:00 5.5 7 Sudoeste 22 Sudoeste 0 964.6 -0.8 90
2019-01-18 18:00:00 5.6 12 Sur 26 Sur 0 964.6 -1 89
2019-01-18 17:00:00 5.8 12 Sur 24 Sur 0 964.9 -1.4 87
2019-01-18 16:00:00 5.7 9 Sudoeste 20 Sudoeste 0 965.4 -1.6 88
2019-01-18 15:00:00 5.9 8 Sudoeste 21 Sur 0 965.6 -1.9 86
2019-01-18 14:00:00 5 7 Sur 23 Sur 0 966.3 -1.5 91
2019-01-18 13:00:00 4.8 7 Sur 23 Sur 0 967 -0.5 92
2019-01-18 12:00:00 4 7 Sur 20 Sudeste 0.2 967.5 0.1 94
2019-01-18 11:00:00 3.4 4 Sudoeste 21 Sudoeste 0 967.8 -0.2 93
2019-01-18 10:00:00 3 7 Sudoeste 18 Sudoeste 0 967.5 0.1 95
2019-01-18 09:00:00 2.8 7 Sudoeste 14 Sudoeste 1.2 967.4 -0.5 97
2019-01-18 08:00:00 1.3 0 Calma 6 Norte 0.6 968 -0.2 98
2019-01-18 07:00:00 1.2 3 Noroeste 5 Nordeste 0 967.4 -1.5 99
2019-01-18 06:00:00 0.8 2 Sudeste 4 Noroeste 0 967.9 -1.1 97
2019-01-18 05:00:00 0.6 2 Sur 5 Norte 0 968.2 -1.4 97
2019-01-18 04:00:00 0.4 0 Calma 4 Sur 0 968.9 -1.2 97
2019-01-18 03:00:00 0.1 3 Sudeste 5 Sudeste 0 969 -1.6 95
2019-01-18 02:00:00 0.7 0 Calma 4 Noroeste 0 969.6 -0.8 96
2019-01-18 01:00:00 0.9 2 Sur 4 Sudeste 0 970.1 -0.1 94
2019-01-18 00:00:00 1.3 2 Sudeste 4 Sudeste 0 970.6 0.5 96
2019-01-17 23:00:00 1.1 2 Sur 5 Sudeste 0 970.4 0.2 94
2019-01-17 22:00:00 1.7 0 Calma 5 Sudeste 0 970.2 0 93
2019-01-17 21:00:00 3 5 Sudeste 9 Sudeste 0 970.1 0.4 91
2019-01-17 20:00:00 5 3 Sudeste 4 Oeste 0 970.2 0.8 90
2019-01-17 19:00:00 6.4 3 Oeste 4 Noroeste 0 970.2 0.9 89
2019-01-17 18:00:00 6.9 0 Calma 4 Este 0 969.7 0.5 90
2019-01-17 17:00:00 8.2 2 Nordeste 12 Noroeste 0.4 969.4 -0.2 84
2019-01-17 16:00:00 9.4 4 Noroeste 10 Noroeste 0 969.3 -1.1 74
2019-01-17 15:00:00 8.1 2 Norte 9 Este 0 969.2 -1.5 79
2019-01-17 14:00:00 8.3 3 Noroeste 7 Oeste 0 969.6 -0.6 78
2019-01-17 13:00:00 5 3 Noroeste 9 Norte 0 970.4 0.4 98
2019-01-17 12:00:00 3.4 4 Noroeste 8 Oeste 0 970.7 1.3 96
2019-01-17 11:00:00 1.7 2 Sudeste 4 Este 0 970.2 1.3 98
2019-01-17 10:00:00 -0.1 2 Sur 4 Sudeste 0 970 1.1 98
2019-01-17 09:00:00 0.1 0 Calma 7 Oeste 0 969.4 0.9 96
2019-01-17 08:00:00 0.7 6 Sudeste 9 Sudeste 0 968.9 0.7 99
2019-01-17 07:00:00 0.8 2 Sudeste 10 Sudeste 0 968.9 0.8 97
2019-01-17 06:00:00 1.1 3 Sur 10 Sudeste 0 968.5 0.7 93
2019-01-17 05:00:00 1.8 3 Sudeste 7 Sudeste 0 968.2 0.4 91
2019-01-17 04:00:00 3.6 3 Sudeste 4 Sudeste 0 968.1 0.4 91
2019-01-17 03:00:00 4.6 3 Oeste 5 Sudeste 0 967.8 0.4 95
2019-01-17 02:00:00 5.5 3 Oeste 7 Noroeste 0 967.8 0.6 95
2019-01-17 01:00:00 6.2 3 Oeste 5 Noroeste 0 967.7 0.9 94
2019-01-17 00:00:00 6.8 4 Norte 11 Oeste 1.2 967.4 1.2 96
2019-01-16 23:00:00 7 3 Noroeste 9 Noroeste 0.4 967.2 1.5 96
2019-01-16 22:00:00 7.4 4 Noroeste 12 Noroeste 0.4 966.8 1.7 96
2019-01-16 21:00:00 7.9 3 Noroeste 8 Noroeste 0.8 966.2 1.3 95
2019-01-16 20:00:00 8.2 4 Oeste 9 Sudoeste 0.2 965.7 1.1 92
2019-01-16 19:00:00 8.6 5 Sudoeste 10 Sudoeste 0 965.1 0.6 87
2019-01-16 18:00:00 9.2 6 Sudoeste 10 Oeste 0 964.9 0.5 84
2019-01-16 17:00:00 9.3 4 Oeste 12 Oeste 0 964.6 0 86
2019-01-16 16:00:00 8.7 6 Oeste 17 Noroeste 0 964.5 -0.6 88
2019-01-16 15:00:00 8.9 8 Sudoeste 18 Sudoeste 0 964.4 -1.1 88
2019-01-16 14:00:00 9 11 Sudoeste 21 Sudoeste 0 964.6 -0.8 87
2019-01-16 13:00:00 8.6 11 Sudoeste 22 Sudoeste 0 965.1 0.1 88